createdAt,value
2019-03-09T00:02:58.234Z,100448.38
2019-03-09T00:08:01.134Z,100438.70
2019-03-09T00:13:03.940Z,100431.98
2019-03-09T00:18:06.689Z,100419.06
2019-03-09T00:23:26.880Z,100412.95
2019-03-09T00:28:32.418Z,100390.80
2019-03-09T00:33:35.274Z,100383.72
2019-03-09T00:38:38.019Z,100363.98
2019-03-09T00:43:40.839Z,100352.92
2019-03-09T00:48:43.628Z,100345.83
2019-03-09T00:53:46.391Z,100337.64
2019-03-09T00:58:49.434Z,100326.92
2019-03-09T01:03:52.333Z,100325.70
2019-03-09T01:08:55.403Z,100318.78
2019-03-09T01:13:58.431Z,100329.41
2019-03-09T01:19:01.536Z,100303.91
2019-03-09T01:24:04.597Z,100291.23
2019-03-09T01:29:07.435Z,100265.16
2019-03-09T01:34:10.152Z,100252.99
2019-03-09T01:39:12.852Z,100237.23
2019-03-09T01:44:15.558Z,100227.28
2019-03-09T01:49:18.256Z,100201.73
2019-03-09T01:54:21.140Z,100192.47
2019-03-09T01:59:23.891Z,100183.51
2019-03-09T02:04:26.653Z,100169.14
2019-03-09T02:09:29.419Z,100155.22
2019-03-09T02:14:32.130Z,100130.83
2019-03-09T02:19:34.881Z,100131.17
2019-03-09T02:24:37.710Z,100120.78
2019-03-09T02:29:40.453Z,100109.29
2019-03-09T02:34:43.254Z,100093.63
2019-03-09T02:39:51.700Z,100076.33
2019-03-09T02:44:54.568Z,100056.23
2019-03-09T02:49:57.461Z,100052.47
2019-03-09T02:55:00.532Z,100029.73
2019-03-09T03:00:07.086Z,100038.42
2019-03-09T03:05:10.154Z,100009.39
2019-03-09T03:10:13.058Z,100012.86
2019-03-09T03:15:31.590Z,100016.39
2019-03-09T03:20:34.336Z,100027.14
2019-03-09T03:25:37.071Z,100010.40
2019-03-09T03:30:39.849Z,99996.36
2019-03-09T03:35:42.695Z,99991.08
2019-03-09T03:40:45.470Z,99984.52
2019-03-09T03:45:48.249Z,99980.00
2019-03-09T03:50:51.014Z,99971.86
2019-03-09T03:55:53.822Z,99962.63
2019-03-09T04:00:56.500Z,99950.81
2019-03-09T04:05:59.202Z,99948.63
2019-03-09T04:11:02.007Z,99951.83
2019-03-09T04:16:04.722Z,99948.43
2019-03-09T04:21:07.547Z,99933.20
2019-03-09T04:26:11.403Z,99919.88
2019-03-09T04:31:14.126Z,99933.22
2019-03-09T04:36:16.840Z,99919.74
2019-03-09T04:41:19.550Z,99938.49
2019-03-09T04:46:22.318Z,99954.03
2019-03-09T04:51:25.025Z,99952.39
2019-03-09T04:56:27.807Z,99940.77
2019-03-09T05:01:31.491Z,99943.78
2019-03-09T05:06:34.290Z,99943.72
2019-03-09T05:11:36.997Z,99940.59
2019-03-09T05:16:39.749Z,99955.34
2019-03-09T05:21:42.484Z,99978.86
2019-03-09T05:26:45.254Z,99978.48
2019-03-09T05:31:48.049Z,99992.16
2019-03-09T05:36:50.818Z,99984.20
2019-03-09T05:41:53.525Z,100013.23
2019-03-09T05:46:57.263Z,100006.91
2019-03-09T05:52:31.829Z,100019.09
2019-03-09T05:57:34.678Z,100018.20
2019-03-09T06:02:37.401Z,100019.41
2019-03-09T06:07:40.113Z,100036.22
2019-03-09T06:12:42.836Z,100033.09
2019-03-09T06:17:45.542Z,100054.76
2019-03-09T06:22:48.223Z,100038.74
2019-03-09T06:27:50.939Z,100039.41
2019-03-09T06:33:20.403Z,100053.16
2019-03-09T06:38:54.239Z,100078.59
2019-03-09T06:43:56.932Z,100083.92
2019-03-09T06:48:59.675Z,100080.86
2019-03-09T06:54:02.403Z,100114.83
2019-03-09T06:59:05.315Z,100106.39
2019-03-09T07:04:08.222Z,100108.69
2019-03-09T07:09:10.912Z,100111.77
2019-03-09T07:15:19.369Z,100126.78
2019-03-09T07:20:22.330Z,100135.16
2019-03-09T07:25:25.095Z,100140.33
2019-03-09T07:30:27.987Z,100142.07
2019-03-09T07:35:30.722Z,100150.20
2019-03-09T07:40:33.440Z,100154.16
2019-03-09T07:45:36.977Z,100157.07
2019-03-09T07:50:39.685Z,100171.23
2019-03-09T07:55:42.399Z,100160.98
2019-03-09T08:00:50.670Z,100181.92
2019-03-09T08:05:53.379Z,100176.56
2019-03-09T08:10:56.086Z,100178.94
2019-03-09T08:15:58.782Z,100181.09
2019-03-09T08:21:01.497Z,100184.38
2019-03-09T08:26:04.211Z,100194.55
2019-03-09T08:31:06.909Z,100210.78
2019-03-09T08:36:09.633Z,100219.39
2019-03-09T08:41:12.431Z,100226.23
2019-03-09T08:46:15.126Z,100226.52
2019-03-09T08:51:17.863Z,100233.20
2019-03-09T08:56:20.559Z,100237.91
2019-03-09T09:01:23.257Z,100247.30
2019-03-09T09:06:25.937Z,100263.94
2019-03-09T09:11:28.635Z,100263.98
2019-03-09T09:16:31.337Z,100268.44
2019-03-09T09:21:34.050Z,100264.02
2019-03-09T09:26:36.742Z,100263.19
2019-03-09T09:31:39.446Z,100264.30
2019-03-09T09:36:42.205Z,100241.91
2019-03-09T09:41:44.903Z,100237.27
2019-03-09T09:46:47.612Z,100248.85
2019-03-09T09:51:50.319Z,100241.75
2019-03-09T09:56:53.027Z,100245.27
2019-03-09T10:01:55.725Z,100238.88
2019-03-09T10:06:58.442Z,100238.67
2019-03-09T10:12:01.145Z,100230.67
2019-03-09T10:17:03.885Z,100214.72
2019-03-09T10:22:06.672Z,100200.80
2019-03-09T10:27:09.388Z,100201.39
2019-03-09T10:32:12.094Z,100210.03
2019-03-09T10:37:14.789Z,100224.97
2019-03-09T10:42:17.542Z,100209.69
2019-03-09T10:47:20.243Z,100210.23
2019-03-09T10:52:22.950Z,100216.27
2019-03-09T10:57:25.670Z,100212.81
2019-03-09T11:02:28.365Z,100214.52
2019-03-09T11:07:31.074Z,100212.51
2019-03-09T11:12:33.778Z,100223.55
2019-03-09T11:17:36.516Z,100203.30
2019-03-09T11:22:39.240Z,100196.72
2019-03-09T11:27:41.955Z,100207.66
2019-03-09T11:32:44.656Z,100203.50
2019-03-09T11:37:47.777Z,100187.80
2019-03-09T11:42:50.502Z,100187.30
2019-03-09T11:47:53.308Z,100172.78
2019-03-09T11:52:56.023Z,100176.95
2019-03-09T11:58:00.374Z,100180.85
2019-03-09T12:03:03.067Z,100175.67
2019-03-09T12:08:05.774Z,100179.86
2019-03-09T12:13:08.487Z,100180.16
2019-03-09T12:18:11.185Z,100167.47
2019-03-09T12:23:24.863Z,100159.02
2019-03-09T12:28:27.569Z,100162.42
2019-03-09T12:33:30.260Z,100148.03
2019-03-09T12:38:32.965Z,100144.02
2019-03-09T12:43:35.702Z,100128.97
2019-03-09T12:48:38.510Z,100115.26
2019-03-09T12:53:41.213Z,100105.19
2019-03-09T12:58:46.164Z,100092.65
2019-03-09T13:03:48.644Z,100084.05
2019-03-09T13:08:51.381Z,100079.69
2019-03-09T13:13:54.135Z,100073.97
2019-03-09T13:18:56.840Z,100071.08
2019-03-09T13:23:59.536Z,100092.29
2019-03-09T13:29:02.273Z,100081.22
2019-03-09T13:34:04.990Z,100087.16
2019-03-09T13:39:07.961Z,100077.00
2019-03-09T13:44:10.644Z,100072.34
2019-03-09T13:49:13.336Z,100050.15
2019-03-09T13:54:16.081Z,100035.80
2019-03-09T13:59:18.793Z,100040.19
2019-03-09T14:04:21.511Z,100002.13
2019-03-09T14:09:24.232Z,99948.47
2019-03-09T14:14:27.022Z,99946.91
2019-03-09T14:19:29.731Z,99929.64
2019-03-09T14:24:32.446Z,99920.27
2019-03-09T14:29:35.183Z,99889.02
2019-03-09T14:34:37.908Z,99882.34
2019-03-09T14:39:40.734Z,99858.75
2019-03-09T14:44:43.557Z,99832.55
2019-03-09T14:49:46.291Z,99845.89
2019-03-09T14:54:48.980Z,99870.28
2019-03-09T14:59:51.681Z,99906.58
2019-03-09T15:04:54.384Z,99893.09
2019-03-09T15:09:57.079Z,99855.91
2019-03-09T15:14:59.814Z,99854.23
2019-03-09T15:20:02.633Z,99839.23
2019-03-09T15:25:07.040Z,99813.29
2019-03-09T15:30:12.204Z,99795.73
2019-03-09T15:35:15.246Z,99827.76
2019-03-09T15:40:18.112Z,99853.53
2019-03-09T15:45:20.809Z,99855.01
2019-03-09T15:50:23.515Z,99827.00
2019-03-09T15:55:26.231Z,99819.87
2019-03-09T16:00:28.970Z,99809.23
2019-03-09T16:05:31.681Z,99793.24
2019-03-09T16:10:34.408Z,99833.75
2019-03-09T16:15:37.097Z,99864.00
2019-03-09T16:20:39.785Z,99833.30
2019-03-09T16:25:42.495Z,99831.58
2019-03-09T16:30:45.212Z,99842.23
2019-03-09T16:35:47.968Z,99808.45
2019-03-09T16:40:50.687Z,99827.83
2019-03-09T16:45:53.422Z,99849.85
2019-03-09T16:50:56.166Z,99837.69
2019-03-09T16:55:58.896Z,99836.38
2019-03-09T17:01:01.605Z,99867.06
2019-03-09T17:06:04.292Z,99883.62
2019-03-09T17:11:07.001Z,99916.60
2019-03-09T17:16:09.752Z,99936.78
2019-03-09T17:21:13.881Z,99932.20
2019-03-09T17:26:16.675Z,99960.55
2019-03-09T17:31:19.389Z,99988.91
2019-03-09T17:36:22.092Z,100017.81
2019-03-09T17:41:24.834Z,100040.49
2019-03-09T17:46:27.561Z,100081.30
2019-03-09T17:51:30.276Z,100125.20
2019-03-09T17:56:32.995Z,100162.93
2019-03-09T18:01:35.714Z,100180.17
2019-03-09T18:06:38.467Z,100215.30
2019-03-09T18:11:41.228Z,100231.88
2019-03-09T18:16:52.535Z,100270.16
2019-03-09T18:21:48.562Z,100275.79
2019-03-09T18:26:51.248Z,100303.31
2019-03-09T18:31:53.961Z,100336.14
2019-03-09T18:36:56.689Z,100341.95
2019-03-09T18:41:59.425Z,100366.30
2019-03-09T18:47:02.146Z,100391.77
2019-03-09T18:52:04.884Z,100416.93
2019-03-09T18:57:07.585Z,100430.01
2019-03-09T19:02:10.286Z,100427.44
2019-03-09T19:07:13.014Z,100457.06
2019-03-09T19:12:15.743Z,100479.55
2019-03-09T19:17:18.448Z,100486.58
2019-03-09T19:22:21.175Z,100506.22
2019-03-09T19:27:23.896Z,100510.99
2019-03-09T19:32:26.642Z,100512.42
2019-03-09T19:37:29.363Z,100530.44
2019-03-09T19:42:32.322Z,100545.24
2019-03-09T19:47:35.082Z,100543.33
2019-03-09T19:52:37.982Z,100552.79
2019-03-09T19:57:40.709Z,100550.52
2019-03-09T20:02:43.516Z,100562.48
2019-03-09T20:07:46.231Z,100575.06
2019-03-09T20:12:48.937Z,100583.73
2019-03-09T20:17:51.668Z,100588.11
2019-03-09T20:22:54.386Z,100598.02
2019-03-09T20:27:57.085Z,100595.45
2019-03-09T20:32:59.871Z,100591.52
2019-03-09T20:38:02.991Z,100585.12
2019-03-09T20:43:06.444Z,100594.78
2019-03-09T20:48:11.118Z,100599.36
2019-03-09T20:53:15.622Z,100590.91
2019-03-09T20:58:21.254Z,100601.02
2019-03-09T21:03:25.296Z,100618.88
2019-03-09T21:08:29.780Z,100633.89
2019-03-09T21:13:33.690Z,100630.92
2019-03-09T21:18:36.743Z,100627.53
2019-03-09T21:23:39.478Z,100632.98
2019-03-09T21:28:42.251Z,100632.95
2019-03-09T21:33:45.062Z,100639.12
2019-03-09T21:38:47.894Z,100656.71
2019-03-09T21:43:50.826Z,100661.84
2019-03-09T21:48:53.653Z,100658.78
2019-03-09T21:53:56.598Z,100651.91
2019-03-09T21:58:59.396Z,100657.14
2019-03-09T22:04:02.263Z,100661.02
2019-03-09T22:09:06.014Z,100660.14
2019-03-09T22:14:08.736Z,100652.10
2019-03-09T22:19:11.449Z,100657.70
2019-03-09T22:24:14.265Z,100661.81
2019-03-09T22:29:17.031Z,100665.35
2019-03-09T22:34:19.786Z,100656.58
2019-03-09T22:39:22.557Z,100651.67
2019-03-09T22:44:25.307Z,100666.41
2019-03-09T22:49:28.019Z,100665.58
2019-03-09T22:54:30.752Z,100648.02
2019-03-09T22:59:33.469Z,100644.12
2019-03-09T23:04:36.190Z,100641.98
2019-03-09T23:09:38.989Z,100637.61
2019-03-09T23:14:41.849Z,100648.67
2019-03-09T23:19:44.648Z,100636.09
2019-03-09T23:24:47.377Z,100645.42
2019-03-09T23:29:50.118Z,100650.76
2019-03-09T23:34:52.840Z,100641.84
2019-03-09T23:39:55.542Z,100651.23
2019-03-09T23:44:58.270Z,100661.14
2019-03-09T23:50:01.006Z,100661.03
2019-03-09T23:55:04.139Z,100639.72
